East Point, Canada
Current Conditions -  °F | °C
As of 9:00 AM on Tuesday 21 Oct 2014 (Local Time) from CYYG Reporting Station
Broken Clouds Broken Clouds  
Wind Chill: 35°   Ceiling: 28000
Heat Index: 41°   Visibility: 15mi
Dew Point: 32°   Wind: 9mph
Humidity: 70%   Direction: 240°WSW
Pressure: 30.09"   Gusts: NA
Location:  46.45°N, 61.97°W
Report Text: CYYG 211200Z 24008KT 15SM FEW025 FEW170 BKN280 05/00 A3009 RMK SC1AC1CI5 SC TR AC TR SLP192
Loading
Personal Weather Stations






























Interactive Weather Map
Tropical Storm Tracking
New forecast layout! Learn more

10-Day Weather Forecast

Advertisements
Track Severe Weather on mobile